Time;durP1;ratioP1;P1;durP2;ratioP2;P2;SDS_P1;SDS_P2;PMS_P1;PMS_P2;Temp;Humidity;BMP_temperature;BMP_pressure;BME280_temperature;BME280_humidity;BME280_pressure;Samples;Min_cycle;Max_cycle;Signal;HPM_P1;HPM_P2
2023/03/18 00:01:19;;;;;;;11.10;6.63;;;;;;;10.55;100.00;98511.38;5105808;28;20195;-80
2023/03/18 00:03:48;;;;;;;13.43;6.77;;;;;;;10.67;100.00;98510.44;5109646;28;20194;-82
2023/03/18 00:06:20;;;;;;;11.47;7.00;;;;;;;10.65;100.00;98525.59;5113332;28;20210;-81
2023/03/18 00:08:51;;;;;;;10.53;6.27;;;;;;;10.73;100.00;98523.25;5083345;28;20286;-80
2023/03/18 00:11:21;;;;;;;10.57;6.80;;;;;;;10.78;100.00;98520.22;5087459;28;20746;-81
2023/03/18 00:13:53;;;;;;;9.73;6.20;;;;;;;10.65;100.00;98527.41;5009691;28;20198;-81
2023/03/18 00:16:22;;;;;;;10.93;6.93;;;;;;;10.65;100.00;98535.34;5008400;28;20203;-81
2023/03/18 00:18:51;;;;;;;8.90;6.30;;;;;;;10.66;100.00;98539.69;5022534;28;20202;-81
2023/03/18 00:21:23;;;;;;;11.77;6.80;;;;;;;10.74;100.00;98540.81;5004990;28;20221;-81
2023/03/18 00:23:55;;;;;;;10.63;6.80;;;;;;;10.57;100.00;98543.88;5005031;28;20198;-81
2023/03/18 00:26:27;;;;;;;11.33;6.80;;;;;;;10.62;100.00;98544.38;5016879;28;20189;-81
2023/03/18 00:28:58;;;;;;;8.87;6.33;;;;;;;10.73;100.00;98552.38;5040245;28;20263;-81
2023/03/18 00:31:29;;;;;;;9.57;6.23;;;;;;;10.67;100.00;98552.81;5059980;27;20334;-80
2023/03/18 00:34:00;;;;;;;9.60;6.50;;;;;;;10.72;100.00;98550.69;5113191;27;20269;-80
2023/03/18 00:36:33;;;;;;;10.80;6.83;;;;;;;10.62;100.00;98554.13;5107705;28;20198;-81
2023/03/18 00:39:02;;;;;;;9.27;5.77;;;;;;;10.47;100.00;98559.59;5105364;28;20187;-81
2023/03/18 00:41:35;;;;;;;13.30;6.50;;;;;;;10.44;100.00;98556.31;5119051;28;20187;-80
2023/03/18 00:44:04;;;;;;;13.10;6.90;;;;;;;10.50;100.00;98564.63;5111760;28;20199;-81
2023/03/18 00:46:35;;;;;;;9.70;6.70;;;;;;;10.60;100.00;98575.41;5112906;28;20223;-80
2023/03/18 00:49:06;;;;;;;10.00;6.30;;;;;;;10.43;100.00;98570.53;5104178;28;20226;-80
2023/03/18 00:51:40;;;;;;;10.47;7.03;;;;;;;10.39;100.00;98587.56;5112939;28;20642;-81
2023/03/18 00:54:11;;;;;;;9.47;6.13;;;;;;;10.41;100.00;98586.50;5112587;28;20252;-80
2023/03/18 00:56:40;;;;;;;10.57;6.20;;;;;;;10.21;100.00;98585.25;5115231;27;20366;-80
2023/03/18 00:59:10;;;;;;;10.67;7.23;;;;;;;10.36;100.00;98599.22;5111518;28;20638;-81
2023/03/18 01:01:39;;;;;;;9.33;6.30;;;;;;;10.43;100.00;98589.91;5115507;27;20248;-81
2023/03/18 01:04:08;;;;;;;9.73;5.47;;;;;;;10.41;100.00;98597.06;5108464;28;20203;-80
2023/03/18 01:06:38;;;;;;;8.50;4.20;;;;;;;10.65;100.00;98593.63;5110956;28;20202;-80
2023/03/18 01:09:10;;;;;;;7.33;4.37;;;;;;;10.48;100.00;98600.13;5110269;28;20194;-80
2023/03/18 01:11:38;;;;;;;5.73;3.17;;;;;;;10.71;100.00;98601.97;5108632;28;20202;-80
2023/03/18 01:14:07;;;;;;;6.27;3.07;;;;;;;10.81;100.00;98610.09;5112480;28;20274;-80
2023/03/18 01:16:35;;;;;;;6.77;3.50;;;;;;;10.87;100.00;98613.09;5112892;28;20190;-79
2023/03/18 01:19:04;;;;;;;7.17;2.93;;;;;;;10.71;100.00;98601.09;5112330;28;20190;-80
2023/03/18 01:21:32;;;;;;;6.03;3.00;;;;;;;10.76;100.00;98591.03;5115055;27;20248;-79
2023/03/18 01:24:03;;;;;;;7.60;2.90;;;;;;;10.95;100.00;98590.50;5109863;28;20210;-80
2023/03/18 01:26:32;;;;;;;7.07;3.07;;;;;;;10.81;100.00;98591.53;5090212;28;20192;-79
2023/03/18 01:29:01;;;;;;;6.67;2.90;;;;;;;10.73;100.00;98575.38;5092630;28;20188;-79
2023/03/18 01:31:29;;;;;;;9.40;4.60;;;;;;;10.63;100.00;98572.56;5087874;28;20196;-80
2023/03/18 01:33:58;;;;;;;8.63;4.20;;;;;;;10.60;100.00;98570.94;5090435;28;20307;-79
2023/03/18 01:36:27;;;;;;;7.97;4.90;;;;;;;10.62;100.00;98577.97;5085644;28;20191;-80
2023/03/18 01:38:56;;;;;;;6.73;5.40;;;;;;;10.59;100.00;98573.72;5091938;28;20211;-80
2023/03/18 01:41:26;;;;;;;7.50;5.27;;;;;;;10.41;100.00;98553.88;5089541;28;20188;-79
2023/03/18 01:43:54;;;;;;;10.20;5.33;;;;;;;10.40;100.00;98557.47;5091049;28;20198;-80
2023/03/18 01:46:36;;;;;;;8.80;4.80;;;;;;;10.43;100.00;98558.13;5090878;28;20211;-80
2023/03/18 01:49:09;;;;;;;9.93;6.20;;;;;;;10.25;100.00;98570.03;5093900;28;20340;-79
2023/03/18 01:51:39;;;;;;;8.30;5.90;;;;;;;10.11;100.00;98568.34;5091864;28;20203;-79
2023/03/18 01:54:09;;;;;;;11.40;6.73;;;;;;;10.03;100.00;98575.97;5094801;28;20325;-80
2023/03/18 01:56:44;;;;;;;10.73;7.17;;;;;;;9.91;100.00;98582.16;5091777;28;20204;-80
2023/03/18 01:59:14;;;;;;;9.93;6.90;;;;;;;9.94;100.00;98579.28;5093095;28;20199;-79
2023/03/18 02:01:48;;;;;;;13.40;6.53;;;;;;;9.94;100.00;98579.28;5091435;28;20203;-80
2023/03/18 02:04:18;;;;;;;11.50;6.93;;;;;;;9.90;100.00;98583.09;5096246;28;20191;-79
2023/03/18 02:06:46;;;;;;;8.17;6.50;;;;;;;9.87;100.00;98589.47;5092336;28;20265;-79
2023/03/18 02:09:15;;;;;;;11.03;6.50;;;;;;;9.89;100.00;98592.84;5093812;28;20188;-80
2023/03/18 02:11:48;;;;;;;11.17;7.07;;;;;;;9.90;100.00;98599.81;5090385;28;20241;-80
2023/03/18 02:14:20;;;;;;;11.43;7.33;;;;;;;9.84;100.00;98597.59;5098599;28;20212;-79
2023/03/18 02:16:56;;;;;;;13.17;7.40;;;;;;;9.88;100.00;98596.44;5092297;28;20252;-80
2023/03/18 02:19:37;;;;;;;12.40;7.73;;;;;;;9.99;100.00;98593.03;5093491;28;20290;-79
2023/03/18 02:22:15;;;;;;;11.87;7.90;;;;;;;9.88;100.00;98595.59;5092059;28;20202;-80
2023/03/18 02:24:54;;;;;;;9.50;7.20;;;;;;;9.83;100.00;98614.41;5096472;28;20191;-80
2023/03/18 02:27:27;;;;;;;12.37;8.37;;;;;;;9.65;100.00;98613.91;5096091;28;20199;-80
2023/03/18 02:30:00;;;;;;;14.10;9.23;;;;;;;9.63;100.00;98605.22;5092215;28;20196;-80
2023/03/18 02:32:29;;;;;;;14.70;9.63;;;;;;;9.48;100.00;98605.44;5096698;27;20204;-80
2023/03/18 02:35:01;;;;;;;13.50;9.40;;;;;;;9.55;100.00;98606.69;5095232;28;20227;-79
2023/03/18 02:37:29;;;;;;;15.43;9.93;;;;;;;9.45;100.00;98609.13;5097473;27;20212;-79
2023/03/18 02:40:12;;;;;;;16.90;10.37;;;;;;;9.41;100.00;98616.44;5094668;28;20277;-80
2023/03/18 02:42:43;;;;;;;16.40;10.07;;;;;;;9.28;100.00;98620.03;5095834;28;20196;-80
2023/03/18 02:45:22;;;;;;;12.67;9.60;;;;;;;9.30;100.00;98618.13;5091856;28;20232;-80
2023/03/18 02:47:52;;;;;;;14.50;10.20;;;;;;;9.36;100.00;98615.03;5093290;28;20203;-80
2023/03/18 02:50:21;;;;;;;14.53;10.00;;;;;;;9.30;100.00;98608.38;5092572;28;20192;-79
2023/03/18 02:52:50;;;;;;;14.13;10.23;;;;;;;9.23;100.00;98615.03;5087457;28;20220;-80
2023/03/18 02:55:20;;;;;;;13.53;9.87;;;;;;;9.16;100.00;98616.38;5093460;28;20195;-79
2023/03/18 02:57:49;;;;;;;12.63;10.60;;;;;;;9.01;100.00;98606.84;5089847;28;20245;-80
2023/03/18 03:00:18;;;;;;;13.80;9.90;;;;;;;9.03;100.00;98611.06;5094916;28;20668;-80
2023/03/18 03:02:46;;;;;;;15.03;10.50;;;;;;;8.88;100.00;98612.97;5093253;28;20200;-80
2023/03/18 03:05:15;;;;;;;16.63;10.63;;;;;;;8.96;100.00;98619.50;5089888;28;20195;-80
2023/03/18 03:07:44;;;;;;;15.50;9.93;;;;;;;8.92;100.00;98625.94;5090396;28;20191;-80
2023/03/18 03:10:13;;;;;;;12.97;10.57;;;;;;;9.04;100.00;98615.41;5091516;28;20191;-79
2023/03/18 03:12:42;;;;;;;14.97;10.50;;;;;;;8.91;100.00;98618.97;5096902;27;20199;-80
2023/03/18 03:15:13;;;;;;;13.50;10.00;;;;;;;8.88;100.00;98620.03;5085913;28;20215;-81
2023/03/18 03:17:41;;;;;;;13.33;10.23;;;;;;;8.84;100.00;98614.09;5090225;28;20203;-79
2023/03/18 03:20:12;;;;;;;14.47;10.60;;;;;;;8.80;100.00;98606.47;5055938;28;20228;-80
2023/03/18 03:22:41;;;;;;;14.90;10.33;;;;;;;8.75;100.00;98603.28;5090481;28;20203;-80
2023/03/18 03:25:10;;;;;;;14.93;10.57;;;;;;;8.83;100.00;98614.19;5090574;28;20253;-80
2023/03/18 03:27:38;;;;;;;16.90;11.17;;;;;;;8.64;100.00;98609.25;5094276;28;20237;-80
2023/03/18 03:30:11;;;;;;;15.93;10.93;;;;;;;8.71;100.00;98615.00;5087568;28;20252;-80
2023/03/18 03:32:41;;;;;;;15.30;10.97;;;;;;;8.78;100.00;98605.72;5091863;28;20205;-80
2023/03/18 03:35:12;;;;;;;14.03;10.27;;;;;;;8.92;100.00;98608.31;5085528;28;20266;-80
2023/03/18 03:37:42;;;;;;;13.20;10.87;;;;;;;8.80;100.00;98619.69;5093684;28;20191;-81
2023/03/18 03:40:13;;;;;;;15.97;11.60;;;;;;;8.80;100.00;98614.41;5093867;28;20199;-80
2023/03/18 03:42:43;;;;;;;12.87;10.87;;;;;;;8.90;100.00;98615.50;5065680;28;20200;-79
2023/03/18 03:45:13;;;;;;;15.47;11.70;;;;;;;8.80;100.00;98617.03;5067146;28;20248;-80
2023/03/18 03:47:46;;;;;;;15.23;10.73;;;;;;;8.92;100.00;98615.38;5068792;28;20193;-79
2023/03/18 03:50:16;;;;;;;17.73;11.30;;;;;;;8.95;100.00;98618.66;5068190;28;20202;-80
2023/03/18 03:52:45;;;;;;;14.40;10.60;;;;;;;8.95;100.00;98613.38;5064087;28;20207;-80
2023/03/18 03:55:16;;;;;;;16.17;11.13;;;;;;;9.00;100.00;98627.13;5067039;28;20224;-80
2023/03/18 03:57:45;;;;;;;13.27;10.20;;;;;;;8.93;100.00;98633.75;5068527;28;20259;-80
2023/03/18 04:00:17;;;;;;;14.57;11.30;;;;;;;9.03;100.00;98626.09;5063524;28;20200;-80
2023/03/18 04:02:49;;;;;;;13.67;10.83;;;;;;;9.11;100.00;98621.13;5074719;28;20200;-80
2023/03/18 04:05:20;;;;;;;14.37;10.20;;;;;;;9.06;100.00;98617.94;5065306;28;20223;-80
2023/03/18 04:07:48;;;;;;;13.90;10.50;;;;;;;9.09;100.00;98626.53;5086496;28;20188;-80
2023/03/18 04:10:19;;;;;;;16.60;11.33;;;;;;;9.05;100.00;98630.31;5088690;28;20278;-79
2023/03/18 04:12:48;;;;;;;17.60;10.80;;;;;;;9.10;100.00;98628.22;5091172;28;20210;-79
2023/03/18 04:15:18;;;;;;;15.17;11.03;;;;;;;8.89;100.00;98640.22;5092896;28;20612;-80
2023/03/18 04:17:48;;;;;;;13.10;10.23;;;;;;;9.05;100.00;98642.66;5094231;28;20202;-80
2023/03/18 04:20:17;;;;;;;17.37;11.60;;;;;;;9.03;100.00;98644.56;5093019;28;20196;-80
2023/03/18 04:22:46;;;;;;;15.80;10.73;;;;;;;9.10;100.00;98637.94;5090251;28;20278;-81
2023/03/18 04:25:14;;;;;;;14.07;10.90;;;;;;;9.06;100.00;98641.72;5090353;28;20208;-80
2023/03/18 04:27:43;;;;;;;15.33;10.83;;;;;;;9.13;100.00;98651.78;5091933;28;20194;-80
2023/03/18 04:30:15;;;;;;;14.80;10.33;;;;;;;9.03;100.00;98636.66;5092942;28;20245;-81
2023/03/18 04:32:44;;;;;;;13.60;10.50;;;;;;;9.02;100.00;98635.81;5016491;28;20193;-80
2023/03/18 04:35:18;;;;;;;14.20;9.97;;;;;;;9.08;100.00;98640.69;5046491;28;20208;-79
2023/03/18 04:37:48;;;;;;;18.10;11.07;;;;;;;9.08;100.00;98635.41;5050633;28;20237;-80
2023/03/18 04:40:18;;;;;;;13.03;10.70;;;;;;;9.06;100.00;98642.56;5047867;28;20219;-79
2023/03/18 04:42:48;;;;;;;19.53;11.20;;;;;;;9.00;100.00;98639.50;5047902;28;20200;-80
2023/03/18 04:45:17;;;;;;;14.50;10.87;;;;;;;8.85;100.00;98636.91;5016891;28;20224;-81
2023/03/18 04:47:45;;;;;;;15.73;10.30;;;;;;;8.86;100.00;98643.03;5049980;28;20200;-80
2023/03/18 04:50:16;;;;;;;12.33;10.33;;;;;;;8.85;100.00;98639.53;5060037;28;20195;-80
2023/03/18 04:52:44;;;;;;;14.13;10.97;;;;;;;8.86;100.00;98630.66;5091103;28;20192;-81
2023/03/18 04:55:16;;;;;;;14.67;10.43;;;;;;;8.75;100.00;98641.09;5088892;28;20212;-80
2023/03/18 04:57:45;;;;;;;15.33;10.87;;;;;;;8.77;100.00;98644.47;5089054;28;20643;-80
2023/03/18 05:00:20;;;;;;;13.77;10.73;;;;;;;8.71;100.00;98651.97;5090379;28;20187;-80
2023/03/18 05:02:48;;;;;;;18.87;11.70;;;;;;;8.56;100.00;98654.63;5089001;28;20202;-80
2023/03/18 05:05:18;;;;;;;20.40;11.10;;;;;;;8.78;100.00;98658.50;5091594;28;20195;-80
2023/03/18 05:07:47;;;;;;;11.90;10.20;;;;;;;8.75;100.00;98656.09;5092419;28;20196;-81
2023/03/18 05:10:15;;;;;;;18.00;10.77;;;;;;;8.66;100.00;98659.31;5092573;28;20271;-81
2023/03/18 05:12:43;;;;;;;14.67;10.53;;;;;;;8.78;100.00;98662.03;5092309;28;20196;-81
2023/03/18 05:15:15;;;;;;;17.00;10.80;;;;;;;8.84;100.00;98671.34;5094837;28;20254;-80
2023/03/18 05:17:44;;;;;;;17.33;11.10;;;;;;;8.83;100.00;98670.50;5090255;28;20661;-81
2023/03/18 05:20:13;;;;;;;13.47;10.93;;;;;;;8.78;100.00;98666.44;5092178;28;20202;-80
2023/03/18 05:22:43;;;;;;;17.53;10.10;;;;;;;8.88;100.00;98663.13;5092223;28;20200;-81
2023/03/18 05:25:12;;;;;;;19.57;11.63;;;;;;;8.78;100.00;98669.97;5092409;28;20204;-81
2023/03/18 05:27:41;;;;;;;13.53;11.03;;;;;;;8.86;100.00;98672.06;5088433;28;20248;-81
2023/03/18 05:30:11;;;;;;;13.13;10.80;;;;;;;8.85;100.00;98667.75;5090089;28;20708;-81
2023/03/18 05:32:40;;;;;;;13.73;10.37;;;;;;;8.97;100.00;98666.94;5092331;28;20206;-81
2023/03/18 05:35:10;;;;;;;15.53;10.97;;;;;;;8.86;100.00;98665.00;5095977;28;20223;-81
2023/03/18 05:37:38;;;;;;;15.73;11.10;;;;;;;8.93;100.00;98664.59;5096108;28;20202;-80
2023/03/18 05:40:10;;;;;;;15.23;11.37;;;;;;;9.02;100.00;98671.94;5050916;28;20194;-81
2023/03/18 05:42:40;;;;;;;14.60;11.40;;;;;;;8.92;100.00;98673.47;5049780;28;20227;-80
2023/03/18 05:45:23;;;;;;;15.67;10.93;;;;;;;8.99;100.00;98677.44;5053546;28;20320;-81
2023/03/18 05:47:52;;;;;;;12.87;10.57;;;;;;;8.98;100.00;98687.16;5052829;28;20196;-80
2023/03/18 05:50:29;;;;;;;15.87;11.67;;;;;;;8.91;100.00;98675.28;5050829;28;20355;-81
2023/03/18 05:52:57;;;;;;;22.10;15.63;;;;;;;8.95;100.00;98681.19;5051213;28;20206;-80
2023/03/18 05:55:28;;;;;;;21.27;11.03;;;;;;;8.97;100.00;98680.16;5048516;28;20248;-80
2023/03/18 05:57:57;;;;;;;19.87;12.97;;;;;;;8.93;100.00;98683.09;5053692;28;20197;-80
2023/03/18 06:00:27;;;;;;;16.50;12.97;;;;;;;8.97;100.00;98685.44;5073626;28;20203;-81
2023/03/18 06:02:57;;;;;;;17.57;12.83;;;;;;;9.01;100.00;98694.88;5067501;28;20192;-80
2023/03/18 06:05:27;;;;;;;16.97;11.70;;;;;;;9.02;100.00;98693.91;5038292;28;20739;-80
2023/03/18 06:07:56;;;;;;;16.83;11.13;;;;;;;9.02;100.00;98693.91;5053345;28;20276;-80
2023/03/18 06:10:25;;;;;;;16.57;12.03;;;;;;;9.09;100.00;98695.22;5049377;28;20193;-80
2023/03/18 06:12:55;;;;;;;16.27;11.53;;;;;;;9.17;100.00;98692.06;5053506;28;20205;-80
2023/03/18 06:15:24;;;;;;;15.63;10.77;;;;;;;9.07;100.00;98696.25;5050464;28;20344;-80
2023/03/18 06:17:53;;;;;;;15.93;10.37;;;;;;;9.12;100.00;98705.56;5038789;28;20194;-80
2023/03/18 06:20:22;;;;;;;12.03;10.70;;;;;;;9.16;100.00;98707.06;5033083;28;20194;-80
2023/03/18 06:22:50;;;;;;;16.97;10.47;;;;;;;9.10;100.00;98707.47;5038351;28;20248;-80
2023/03/18 06:25:20;;;;;;;15.13;11.00;;;;;;;9.12;100.00;98713.50;5095544;28;20196;-80
2023/03/18 06:27:49;;;;;;;13.67;10.60;;;;;;;9.06;100.00;98707.75;5095716;28;20199;-81
2023/03/18 06:30:19;;;;;;;17.93;11.30;;;;;;;9.04;100.00;98704.38;5097672;27;20215;-80
2023/03/18 06:32:48;;;;;;;16.23;11.30;;;;;;;9.07;100.00;98704.16;5094235;28;20203;-80
2023/03/18 06:35:17;;;;;;;18.83;10.97;;;;;;;8.96;100.00;98706.66;5094733;28;20319;-81
2023/03/18 06:37:49;;;;;;;14.20;11.10;;;;;;;9.02;100.00;98706.28;5052720;28;20195;-81
2023/03/18 06:40:17;;;;;;;16.67;11.37;;;;;;;9.00;100.00;98714.31;5048632;28;20247;-81
2023/03/18 06:42:45;;;;;;;14.07;10.73;;;;;;;9.00;100.00;98718.75;5045269;28;20201;-81
2023/03/18 06:45:14;;;;;;;15.00;11.30;;;;;;;9.01;100.00;98712.50;5049856;28;20229;-80
2023/03/18 06:47:45;;;;;;;19.00;10.93;;;;;;;9.02;100.00;98722.97;5046465;28;20192;-81
2023/03/18 06:50:14;;;;;;;13.03;10.20;;;;;;;9.04;100.00;98722.88;5047226;28;20220;-81
2023/03/18 06:52:42;;;;;;;14.40;10.10;;;;;;;9.18;100.00;98720.19;5033412;28;20197;-80
2023/03/18 06:55:11;;;;;;;15.27;10.17;;;;;;;9.33;100.00;98726.25;5059741;28;20241;-80
2023/03/18 06:57:40;;;;;;;16.83;10.77;;;;;;;9.35;100.00;98727.84;5094690;28;20188;-81
2023/03/18 07:00:10;;;;;;;14.07;10.20;;;;;;;9.40;100.00;98712.53;5093585;28;20708;-80
2023/03/18 07:02:40;;;;;;;16.43;9.90;;;;;;;9.46;100.00;98721.88;5092071;28;20184;-81
2023/03/18 07:05:12;;;;;;;14.53;10.57;;;;;;;9.53;100.00;98730.22;5091818;28;20191;-81
2023/03/18 07:07:41;;;;;;;14.40;10.40;;;;;;;9.62;100.00;98738.38;5071739;28;20250;-80
2023/03/18 07:10:20;;;;;;;14.43;10.33;;;;;;;9.63;100.00;98734.78;5076471;28;20192;-81
2023/03/18 07:12:51;;;;;;;14.10;10.07;;;;;;;9.59;100.00;98728.03;5072627;28;20226;-81
2023/03/18 07:15:21;;;;;;;14.03;10.23;;;;;;;9.62;100.00;98733.09;5068066;28;20224;-80
2023/03/18 07:17:51;;;;;;;15.63;9.93;;;;;;;9.89;100.00;98727.75;5076353;28;20192;-81
2023/03/18 07:20:22;;;;;;;11.87;9.60;;;;;;;9.98;100.00;98732.41;5067578;28;20188;-81
2023/03/18 07:22:52;;;;;;;15.93;10.13;;;;;;;10.05;100.00;98732.84;5066812;28;20197;-81
2023/03/18 07:25:20;;;;;;;12.77;9.73;;;;;;;9.91;100.00;98730.28;5074053;28;20237;-81
2023/03/18 07:27:50;;;;;;;14.23;9.17;;;;;;;10.06;100.00;98729.25;5092050;28;20235;-80
2023/03/18 07:30:20;;;;;;;11.40;8.27;;;;;;;10.22;100.00;98734.34;5084086;28;20661;-81
2023/03/18 07:32:50;;;;;;;13.10;8.60;;;;;;;10.29;100.00;98730.31;5081653;28;20198;-80
2023/03/18 07:35:18;;;;;;;12.67;8.43;;;;;;;10.35;100.00;98729.91;5039007;28;20233;-80
2023/03/18 07:37:48;;;;;;;12.47;8.13;;;;;;;10.28;100.00;98725.97;5091951;28;20188;-81
2023/03/18 07:40:17;;;;;;;9.67;7.50;;;;;;;10.39;100.00;98727.88;5088179;28;20184;-81
2023/03/18 07:42:46;;;;;;;15.03;8.00;;;;;;;10.56;100.00;98719.59;5092084;28;20195;-81
2023/03/18 07:45:15;;;;;;;10.93;7.93;;;;;;;10.66;100.00;98720.63;5092085;28;20272;-80
2023/03/18 07:47:44;;;;;;;14.93;8.03;;;;;;;10.59;100.00;98724.66;5070299;28;20191;-80
2023/03/18 07:50:15;;;;;;;10.47;7.37;;;;;;;10.67;100.00;98716.19;5092439;28;20295;-80
2023/03/18 07:52:43;;;;;;;8.40;6.90;;;;;;;10.68;100.00;98725.81;5088343;28;20200;-80
2023/03/18 07:55:13;;;;;;;10.87;6.63;;;;;;;10.91;100.00;98718.88;5092533;28;20262;-79
2023/03/18 07:57:42;;;;;;;11.77;7.20;;;;;;;10.88;100.00;98717.28;5090540;28;20207;-80
2023/03/18 08:00:12;;;;;;;10.90;6.70;;;;;;;11.08;100.00;98721.13;5091106;28;20206;-80
2023/03/18 08:02:41;;;;;;;12.97;6.87;;;;;;;11.18;100.00;98714.19;5070806;28;20192;-80
2023/03/18 08:05:10;;;;;;;10.17;6.57;;;;;;;11.36;100.00;98722.59;5068364;28;20671;-80
2023/03/18 08:07:39;;;;;;;8.83;6.47;;;;;;;11.53;100.00;98722.19;5068808;28;20208;-80
2023/03/18 08:10:09;;;;;;;11.80;7.10;;;;;;;11.52;100.00;98709.91;5070753;28;20250;-80
2023/03/18 08:12:41;;;;;;;11.43;6.80;;;;;;;11.64;100.00;98708.13;5070969;28;20188;-79
2023/03/18 08:15:20;;;;;;;10.73;6.47;;;;;;;11.52;100.00;98711.69;5070936;28;20250;-81
2023/03/18 08:17:51;;;;;;;9.90;6.50;;;;;;;11.79;100.00;98706.97;5065943;28;20287;-80
2023/03/18 08:20:20;;;;;;;10.57;6.40;;;;;;;11.86;100.00;98710.00;5070971;28;20279;-80
2023/03/18 08:22:49;;;;;;;10.13;5.90;;;;;;;11.81;100.00;98709.53;5070634;28;20279;-80
2023/03/18 08:25:20;;;;;;;9.37;5.83;;;;;;;11.90;100.00;98698.22;5068478;28;20235;-79
2023/03/18 08:27:51;;;;;;;11.37;6.07;;;;;;;11.91;100.00;98706.06;5065905;28;20197;-80
2023/03/18 08:30:19;;;;;;;9.20;5.90;;;;;;;11.97;100.00;98707.41;5070613;28;20204;-81
2023/03/18 08:32:48;;;;;;;10.00;6.30;;;;;;;12.02;100.00;98708.72;5066700;28;20196;-81
2023/03/18 08:35:16;;;;;;;12.27;6.70;;;;;;;12.19;100.00;98712.72;5048487;28;20193;-81
2023/03/18 08:37:49;;;;;;;10.30;6.27;;;;;;;12.29;100.00;98719.00;5050525;28;20264;-81
2023/03/18 08:40:19;;;;;;;12.30;5.97;;;;;;;12.18;100.00;98723.47;5047579;28;20201;-80
2023/03/18 08:42:48;;;;;;;9.40;6.10;;;;;;;12.36;100.00;98710.59;5050350;28;20300;-80
2023/03/18 08:45:21;;;;;;;9.10;6.00;;;;;;;12.49;100.00;98716.59;5047718;28;20707;-80
2023/03/18 08:47:51;;;;;;;10.90;5.77;;;;;;;12.66;100.00;98720.59;5042746;28;20204;-80
2023/03/18 08:50:19;;;;;;;14.67;5.90;;;;;;;12.65;100.00;98719.75;5045557;28;20243;-80
2023/03/18 08:52:48;;;;;;;10.17;5.80;;;;;;;12.74;100.00;98710.16;5061918;28;20187;-80
2023/03/18 08:55:17;;;;;;;15.40;7.87;;;;;;;13.05;100.00;98713.88;5109848;28;20193;-80
2023/03/18 08:57:46;;;;;;;15.03;10.73;;;;;;;13.15;100.00;98717.47;5107510;28;20222;-81
2023/03/18 09:00:15;;;;;;;11.07;7.70;;;;;;;12.97;100.00;98718.97;5107150;28;20198;-81
2023/03/18 09:02:47;;;;;;;15.30;7.73;;;;;;;13.09;100.00;98708.19;5110687;28;20240;-80
2023/03/18 09:05:16;;;;;;;11.43;7.03;;;;;;;13.37;100.00;98704.13;5110747;28;20193;-81
2023/03/18 09:07:45;;;;;;;9.43;6.20;;;;;;;13.45;100.00;98704.34;5111474;28;20195;-81
2023/03/18 09:10:16;;;;;;;12.80;7.03;;;;;;;13.70;100.00;98703.16;5118680;28;20202;-81
2023/03/18 09:12:45;;;;;;;10.80;6.70;;;;;;;13.71;100.00;98706.66;5116244;28;20195;-83
2023/03/18 09:15:16;;;;;;;11.73;6.93;;;;;;;13.76;100.00;98701.78;5114764;28;20195;-81
2023/03/18 09:17:44;;;;;;;10.20;7.00;;;;;;;13.85;100.00;98711.66;5112932;28;20222;-81
2023/03/18 09:20:28;;;;;;;9.73;7.07;;;;;;;14.16;100.00;98706.34;5117704;28;20195;-81
2023/03/18 09:22:59;;;;;;;12.87;7.90;;;;;;;14.38;100.00;98708.88;5114174;28;20187;-81
2023/03/18 09:25:29;;;;;;;11.53;7.40;;;;;;;14.41;100.00;98702.44;5117137;28;20197;-80
2023/03/18 09:27:59;;;;;;;13.77;7.10;;;;;;;14.70;100.00;98713.22;5050188;28;20207;-80
2023/03/18 09:30:28;;;;;;;10.40;6.60;;;;;;;14.76;100.00;98710.00;5047317;28;20197;-80
2023/03/18 09:32:59;;;;;;;8.17;6.10;;;;;;;14.67;100.00;98702.81;5050504;28;20189;-81
2023/03/18 09:35:29;;;;;;;9.37;6.13;;;;;;;14.55;100.00;98705.59;5049319;28;20205;-81
2023/03/18 09:38:00;;;;;;;9.97;5.60;;;;;;;14.70;100.00;98706.09;5051233;28;20228;-81
2023/03/18 09:40:31;;;;;;;7.90;6.30;;;;;;;14.74;100.00;98704.81;5015103;28;20691;-81
2023/03/18 09:43:17;;;;;;;10.63;6.90;;;;;;;14.67;100.00;98705.50;5051227;28;20221;-81
2023/03/18 09:45:59;;;;;;;9.17;6.37;;;;;;;15.02;100.00;98699.69;5048857;28;20219;-81
2023/03/18 09:49:03;;;;;;;9.77;7.27;;;;;;;15.02;100.00;98697.88;5047854;28;20193;-81
2023/03/18 09:51:48;;;;;;;9.40;6.70;;;;;;;14.91;100.00;98698.00;5053712;28;20215;-81
2023/03/18 09:54:24;;;;;;;8.80;6.47;;;;;;;14.99;100.00;98695.50;5021130;28;20196;-81
2023/03/18 09:56:53;;;;;;;10.80;6.53;;;;;;;15.11;100.00;98698.88;5047049;28;20240;-81
2023/03/18 09:59:27;;;;;;;9.60;6.67;;;;;;;15.18;100.00;98692.84;5088017;28;20187;-81
2023/03/18 10:01:58;;;;;;;9.47;6.37;;;;;;;15.21;100.00;98694.38;5115258;28;20195;-81
2023/03/18 10:04:33;;;;;;;9.67;6.47;;;;;;;15.30;100.00;98690.88;5112897;28;20198;-82
2023/03/18 10:07:13;;;;;;;9.87;5.60;;;;;;;15.51;100.00;98698.75;5110399;28;20198;-81
2023/03/18 10:09:44;;;;;;;11.00;5.60;;;;;;;15.60;100.00;98700.63;5111863;28;20264;-81
2023/03/18 10:12:22;;;;;;;9.00;5.67;;;;;;;15.17;100.00;98699.19;5116203;28;20247;-81
2023/03/18 10:14:57;;;;;;;7.60;5.07;;;;;;;15.58;100.00;98705.22;5092729;28;20199;-81
2023/03/18 10:17:31;;;;;;;8.27;5.20;;;;;;;15.94;100.00;98703.69;5089189;28;20227;-81
2023/03/18 10:20:03;;;;;;;6.20;5.47;;;;;;;15.64;100.00;98706.53;5092354;28;20196;-81
2023/03/18 10:22:50;;;;;;;10.00;5.60;;;;;;;15.96;100.00;98700.88;5091471;28;20192;-81
2023/03/18 10:25:26;;;;;;;10.27;5.30;;;;;;;16.04;100.00;98703.66;5088331;28;20278;-81
2023/03/18 10:28:07;;;;;;;9.00;5.47;;;;;;;16.53;100.00;98693.66;5090032;28;20205;-80
2023/03/18 10:30:50;;;;;;;6.50;5.17;;;;;;;16.50;100.00;98696.63;5092462;28;20203;-82
2023/03/18 10:33:32;;;;;;;9.67;5.60;;;;;;;16.36;100.00;98700.63;5104124;28;20187;-82
2023/03/18 10:36:06;;;;;;;8.20;5.67;;;;;;;16.39;100.00;98696.81;5048037;28;20284;-81
2023/03/18 10:38:41;;;;;;;9.40;5.37;;;;;;;16.47;100.00;98699.59;5049783;28;20247;-81
2023/03/18 10:41:18;;;;;;;11.63;6.07;;;;;;;16.48;100.00;98691.41;5045118;28;20201;-86
2023/03/18 10:43:50;;;;;;;8.63;5.07;;;;;;;16.37;100.00;98691.59;5047668;28;20201;-81
2023/03/18 10:46:20;;;;;;;9.03;4.80;;;;;;;16.25;100.00;98682.09;5050266;28;20224;-81
2023/03/18 10:48:55;;;;;;;8.73;5.30;;;;;;;16.28;100.00;98696.00;5053716;28;20231;-81
2023/03/18 10:51:30;;;;;;;6.83;4.33;;;;;;;16.39;100.00;98689.63;5054186;28;20663;-81
2023/03/18 10:54:08;;;;;;;7.07;4.90;;;;;;;16.67;100.00;98687.81;5071904;28;20198;-81
2023/03/18 10:56:37;;;;;;;7.47;4.83;;;;;;;16.82;100.00;98696.22;5073647;28;20212;-81
2023/03/18 10:59:12;;;;;;;6.93;4.70;;;;;;;16.92;100.00;98685.47;5104847;28;20414;-81
2023/03/18 11:01:41;;;;;;;8.97;4.43;;;;;;;16.79;100.00;98699.19;5128186;27;20186;-81
2023/03/18 11:04:15;;;;;;;8.40;3.90;;;;;;;17.03;100.00;98696.81;5098028;27;20206;-82
2023/03/18 11:06:47;;;;;;;7.07;4.10;;;;;;;17.08;100.00;98682.97;5130172;27;20243;-82
2023/03/18 11:09:22;;;;;;;8.43;4.33;;;;;;;17.28;100.00;98687.22;5135134;27;20194;-81
2023/03/18 11:11:57;;;;;;;7.00;3.90;;;;;;;17.10;100.00;98673.81;5095526;27;20198;-82
2023/03/18 11:14:29;;;;;;;5.37;3.40;;;;;;;16.83;100.00;98682.69;5052061;28;20193;-82
2023/03/18 11:17:00;;;;;;;5.03;3.30;;;;;;;17.08;100.00;98678.47;5039758;28;20255;-82
2023/03/18 11:19:32;;;;;;;6.23;3.80;;;;;;;17.39;100.00;98672.75;5052414;28;20189;-82
2023/03/18 11:22:04;;;;;;;5.20;3.50;;;;;;;17.68;100.00;98675.19;5049233;28;20189;-82
2023/03/18 11:24:41;;;;;;;5.77;3.40;;;;;;;17.81;100.00;98675.66;5051788;28;20239;-82
2023/03/18 11:27:42;;;;;;;6.57;3.50;;;;;;;18.23;100.00;98670.38;5047533;28;20193;-82
2023/03/18 11:30:16;;;;;;;7.40;3.67;;;;;;;18.46;98.67;98670.69;5052048;28;20189;-82
2023/03/18 11:33:04;;;;;;;5.10;2.97;;;;;;;18.22;95.28;98671.38;5106046;27;20190;-82
2023/03/18 11:35:39;;;;;;;7.30;3.57;;;;;;;18.58;96.00;98669.41;5132311;27;20202;-82
2023/03/18 11:38:15;;;;;;;8.13;3.70;;;;;;;18.65;95.02;98666.97;5126024;27;20237;-82